Welcome, Texas
Current Conditions -  °F | °C
As of 7:35 AM on Wednesday 26 Nov 2014 (Local Time) from K11R Reporting Station
Clear Clear  
Wind Chill: 47°   Ceiling: Unl
Heat Index: 49°   Visibility: 10mi
Dew Point: 36°   Wind: 6mph
Humidity: 60%   Direction: 210°SSW
Pressure: 30.22"   Gusts: NA
Location:  29.9936°N, 96.5297°W
Report Text: K11R 261335Z AUTO 21005KT 10SM CLR 10/02 A3022 RMK AO2 T00950020
Loading
Personal Weather Stations






























Interactive Weather Map New forecast layout! Learn more

10-Day Weather Forecast

Advertisements
Track Severe Weather on mobile